createdAt,value
2018-12-09T00:01:14.146Z,8.07
2018-12-09T00:03:45.894Z,9.00
2018-12-09T00:06:17.024Z,8.30
2018-12-09T00:08:47.357Z,8.43
2018-12-09T00:11:15.642Z,8.50
2018-12-09T00:13:44.475Z,8.67
2018-12-09T00:16:14.634Z,8.57
2018-12-09T00:18:43.732Z,8.43
2018-12-09T00:21:14.628Z,9.00
2018-12-09T00:23:43.368Z,8.97
2018-12-09T00:26:13.846Z,9.07
2018-12-09T00:28:41.969Z,8.37
2018-12-09T00:31:11.032Z,8.43
2018-12-09T00:33:39.933Z,9.20
2018-12-09T00:36:09.012Z,7.83
2018-12-09T00:38:37.919Z,9.13
2018-12-09T00:41:06.742Z,9.23
2018-12-09T00:43:35.516Z,9.00
2018-12-09T00:46:03.742Z,8.97
2018-12-09T00:48:32.018Z,8.13
2018-12-09T00:51:00.590Z,8.03
2018-12-09T00:53:28.572Z,8.40
2018-12-09T00:55:56.675Z,8.13
2018-12-09T00:58:26.121Z,8.97
2018-12-09T01:00:53.939Z,9.00
2018-12-09T01:03:21.873Z,9.80
2018-12-09T01:05:50.184Z,9.60
2018-12-09T01:08:19.248Z,9.17
2018-12-09T01:10:48.375Z,8.50
2018-12-09T01:13:17.256Z,9.20
2018-12-09T01:15:45.247Z,8.47
2018-12-09T01:18:13.676Z,8.20
2018-12-09T01:20:41.875Z,8.33
2018-12-09T01:23:10.421Z,8.83
2018-12-09T01:25:40.476Z,9.37
2018-12-09T01:28:09.203Z,9.33
2018-12-09T01:30:37.989Z,8.97
2018-12-09T01:33:06.351Z,9.20
2018-12-09T01:35:34.203Z,8.23
2018-12-09T01:38:02.869Z,9.33
2018-12-09T01:40:36.120Z,10.23
2018-12-09T01:43:04.132Z,9.70
2018-12-09T01:45:33.337Z,10.63
2018-12-09T01:48:01.509Z,9.20
2018-12-09T01:50:30.999Z,8.67
2018-12-09T01:53:08.807Z,9.57
2018-12-09T01:55:37.404Z,9.77
2018-12-09T01:58:05.855Z,8.80
2018-12-09T02:00:34.769Z,10.03
2018-12-09T02:03:03.661Z,9.60
2018-12-09T02:05:32.252Z,9.87
2018-12-09T02:08:00.983Z,9.63
2018-12-09T02:10:29.433Z,8.83
2018-12-09T02:12:57.233Z,8.97
2018-12-09T02:15:26.374Z,9.93
2018-12-09T02:17:54.240Z,9.70
2018-12-09T02:20:23.430Z,9.17
2018-12-09T02:22:51.281Z,8.97
2018-12-09T02:25:19.070Z,7.63
2018-12-09T02:27:47.515Z,8.70
2018-12-09T02:30:15.377Z,7.57
2018-12-09T02:32:44.841Z,6.97
2018-12-09T02:35:14.496Z,8.00
2018-12-09T02:37:43.400Z,7.07
2018-12-09T02:40:11.216Z,7.50
2018-12-09T02:42:40.053Z,7.07
2018-12-09T02:45:08.463Z,7.30
2018-12-09T02:47:37.409Z,8.27
2018-12-09T02:50:05.837Z,6.77
2018-12-09T02:52:33.896Z,7.00
2018-12-09T02:55:02.430Z,7.57
2018-12-09T02:57:30.817Z,7.30
2018-12-09T02:59:59.231Z,7.27
2018-12-09T03:02:27.952Z,7.10
2018-12-09T03:04:55.969Z,7.50
2018-12-09T03:07:25.178Z,6.53
2018-12-09T03:09:54.979Z,7.60
2018-12-09T03:12:22.787Z,8.00
2018-12-09T03:14:50.854Z,7.60
2018-12-09T03:17:19.966Z,8.40
2018-12-09T03:19:48.000Z,7.67
2018-12-09T03:22:17.605Z,7.87
2018-12-09T03:24:45.545Z,7.37
2018-12-09T03:27:13.363Z,7.97
2018-12-09T03:29:41.182Z,7.37
2018-12-09T03:32:09.141Z,7.87
2018-12-09T03:34:36.941Z,7.30
2018-12-09T03:37:04.775Z,6.83
2018-12-09T03:39:32.814Z,7.03
2018-12-09T03:42:01.640Z,7.33
2018-12-09T03:44:31.117Z,6.50
2018-12-09T03:47:00.165Z,6.60
2018-12-09T03:49:28.727Z,5.90
2018-12-09T03:51:57.505Z,6.40
2018-12-09T03:54:25.323Z,6.57
2018-12-09T03:56:55.276Z,6.03
2018-12-09T03:59:23.280Z,6.20
2018-12-09T04:01:51.114Z,6.10
2018-12-09T04:04:19.181Z,6.20
2018-12-09T04:06:47.283Z,6.20
2018-12-09T04:09:15.121Z,6.30
2018-12-09T04:11:43.604Z,7.20
2018-12-09T04:14:11.456Z,6.53
2018-12-09T04:16:40.509Z,6.50
2018-12-09T04:19:09.249Z,7.13
2018-12-09T04:21:37.074Z,6.60
2018-12-09T04:24:05.408Z,6.80
2018-12-09T04:26:33.775Z,6.10
2018-12-09T04:29:01.804Z,6.87
2018-12-09T04:31:30.312Z,6.13
2018-12-09T04:33:58.779Z,7.10
2018-12-09T04:36:28.613Z,6.50
2018-12-09T04:38:56.418Z,6.83
2018-12-09T04:41:25.383Z,7.07
2018-12-09T04:43:53.720Z,6.53
2018-12-09T04:46:22.178Z,7.13
2018-12-09T04:48:50.189Z,6.73
2018-12-09T04:51:18.902Z,6.40
2018-12-09T04:53:46.707Z,6.63
2018-12-09T04:56:14.511Z,6.37
2018-12-09T04:58:56.139Z,7.07
2018-12-09T05:01:24.640Z,7.37
2018-12-09T05:03:53.002Z,6.23
2018-12-09T05:06:21.538Z,6.70
2018-12-09T05:08:50.218Z,6.00
2018-12-09T05:11:18.031Z,6.43
2018-12-09T05:13:46.992Z,6.70
2018-12-09T05:16:15.409Z,6.20
2018-12-09T05:18:43.871Z,6.07
2018-12-09T05:21:11.936Z,6.90
2018-12-09T05:23:40.501Z,6.00
2018-12-09T05:26:08.920Z,5.83
2018-12-09T05:28:38.865Z,6.43
2018-12-09T05:31:07.079Z,5.67
2018-12-09T05:33:36.205Z,7.13
2018-12-09T05:36:04.491Z,7.27
2018-12-09T05:38:32.296Z,7.33
2018-12-09T05:41:00.956Z,8.70
2018-12-09T05:43:29.360Z,7.80
2018-12-09T05:45:57.167Z,8.77
2018-12-09T05:48:24.980Z,8.03
2018-12-09T05:50:53.096Z,7.63
2018-12-09T05:53:21.368Z,7.63
2018-12-09T05:55:49.734Z,7.47
2018-12-09T05:58:17.935Z,8.57
2018-12-09T06:00:45.733Z,7.50
2018-12-09T06:03:14.916Z,11.00
2018-12-09T06:05:42.752Z,7.80
2018-12-09T06:08:10.592Z,6.70
2018-12-09T06:10:39.584Z,8.10
2018-12-09T06:13:08.850Z,8.53
2018-12-09T06:15:36.652Z,7.60
2018-12-09T06:18:05.038Z,9.40
2018-12-09T06:20:35.367Z,8.30
2018-12-09T06:23:04.135Z,7.70
2018-12-09T06:25:31.957Z,8.43
2018-12-09T06:28:01.172Z,7.73
2018-12-09T06:30:29.719Z,8.37
2018-12-09T06:32:57.651Z,8.97
2018-12-09T06:35:25.747Z,7.20
2018-12-09T06:37:55.691Z,7.43
2018-12-09T06:40:24.455Z,8.50
2018-12-09T06:42:52.635Z,9.00
2018-12-09T06:45:21.528Z,9.03
2018-12-09T06:47:49.394Z,8.83
2018-12-09T06:50:17.252Z,7.57
2018-12-09T06:52:45.085Z,7.30
2018-12-09T06:55:13.809Z,7.40
2018-12-09T06:57:42.537Z,7.10
2018-12-09T07:00:10.804Z,7.93
2018-12-09T07:02:39.845Z,7.10
2018-12-09T07:05:09.999Z,7.27
2018-12-09T07:07:37.813Z,7.23
2018-12-09T07:10:08.604Z,6.40
2018-12-09T07:12:38.463Z,6.27
2018-12-09T07:15:06.856Z,7.20
2018-12-09T07:17:36.248Z,7.20
2018-12-09T07:20:05.699Z,6.83
2018-12-09T07:22:33.653Z,6.70
2018-12-09T07:25:02.568Z,6.60
2018-12-09T07:27:30.984Z,7.93
2018-12-09T07:30:02.460Z,7.00
2018-12-09T07:32:30.696Z,7.90
2018-12-09T07:34:59.570Z,7.43
2018-12-09T07:37:27.812Z,6.57
2018-12-09T07:39:57.533Z,7.33
2018-12-09T07:42:25.800Z,6.77
2018-12-09T07:44:53.863Z,6.07
2018-12-09T07:47:21.709Z,5.87
2018-12-09T07:49:50.407Z,6.30
2018-12-09T07:52:19.592Z,6.00
2018-12-09T07:54:48.083Z,6.73
2018-12-09T07:57:16.660Z,6.97
2018-12-09T07:59:45.612Z,7.00
2018-12-09T08:02:13.987Z,6.20
2018-12-09T08:04:41.799Z,6.50
2018-12-09T08:07:09.728Z,6.80
2018-12-09T08:09:38.304Z,6.63
2018-12-09T08:12:06.719Z,6.60
2018-12-09T08:14:34.820Z,7.30
2018-12-09T08:17:02.639Z,6.70
2018-12-09T08:19:31.117Z,7.80
2018-12-09T08:22:00.112Z,7.50
2018-12-09T08:24:28.590Z,7.10
2018-12-09T08:26:56.406Z,7.83
2018-12-09T08:29:24.964Z,7.70
2018-12-09T08:31:53.548Z,6.97
2018-12-09T08:34:21.840Z,6.83
2018-12-09T08:36:50.312Z,7.77
2018-12-09T08:39:18.193Z,7.70
2018-12-09T08:41:47.327Z,7.87
2018-12-09T08:44:15.176Z,7.20
2018-12-09T08:46:43.741Z,7.77
2018-12-09T08:49:11.979Z,7.43
2018-12-09T08:51:40.195Z,7.30
2018-12-09T08:54:08.876Z,8.07
2018-12-09T08:56:38.180Z,6.90
2018-12-09T08:59:06.441Z,7.63
2018-12-09T09:01:38.059Z,7.70
2018-12-09T09:04:09.143Z,7.23
2018-12-09T09:06:37.003Z,7.67
2018-12-09T09:09:07.363Z,7.30
2018-12-09T09:11:36.224Z,7.87
2018-12-09T09:14:04.505Z,7.90
2018-12-09T09:16:32.349Z,7.40
2018-12-09T09:19:00.312Z,7.53
2018-12-09T09:21:29.931Z,7.83
2018-12-09T09:23:57.828Z,7.37
2018-12-09T09:26:27.348Z,7.60
2018-12-09T09:28:56.088Z,6.37
2018-12-09T09:31:23.928Z,7.00
2018-12-09T09:33:51.757Z,6.73
2018-12-09T09:36:19.625Z,6.53
2018-12-09T09:38:48.863Z,7.17
2018-12-09T09:41:16.952Z,7.27
2018-12-09T09:43:47.903Z,7.37
2018-12-09T09:46:17.575Z,8.17
2018-12-09T09:48:52.340Z,7.17
2018-12-09T09:51:21.939Z,7.40
2018-12-09T09:53:55.384Z,7.37
2018-12-09T09:56:27.088Z,7.07
2018-12-09T09:58:56.474Z,7.77
2018-12-09T10:01:27.138Z,8.03
2018-12-09T10:04:00.371Z,6.80
2018-12-09T10:06:30.544Z,7.00
2018-12-09T10:09:01.229Z,6.70
2018-12-09T10:11:31.384Z,6.60
2018-12-09T10:14:06.918Z,7.23
2018-12-09T10:16:36.685Z,6.90
2018-12-09T10:19:09.308Z,6.53
2018-12-09T10:21:42.098Z,7.07
2018-12-09T10:24:12.575Z,6.43
2018-12-09T10:26:43.145Z,6.07
2018-12-09T10:29:18.916Z,5.97
2018-12-09T10:31:49.087Z,6.40
2018-12-09T10:34:17.850Z,6.30
2018-12-09T10:36:55.254Z,6.33
2018-12-09T10:39:25.007Z,6.73
2018-12-09T10:41:55.359Z,6.20
2018-12-09T10:44:29.996Z,6.13
2018-12-09T10:47:00.820Z,5.83
2018-12-09T10:49:31.846Z,5.23
2018-12-09T10:52:02.089Z,5.90
2018-12-09T10:54:36.115Z,5.57
2018-12-09T10:57:07.289Z,5.30
2018-12-09T10:59:36.997Z,5.20
2018-12-09T11:02:19.556Z,5.40
2018-12-09T11:04:50.375Z,5.77
2018-12-09T11:07:37.265Z,4.90
2018-12-09T11:10:08.257Z,4.80
2018-12-09T11:12:39.363Z,4.97
2018-12-09T11:15:09.155Z,5.70
2018-12-09T11:17:39.564Z,5.00
2018-12-09T11:20:14.173Z,5.00
2018-12-09T11:22:47.062Z,5.07
2018-12-09T11:25:18.253Z,4.40
2018-12-09T11:27:48.517Z,6.03
2018-12-09T11:30:17.837Z,5.57
2018-12-09T11:32:49.515Z,5.23
2018-12-09T11:35:21.718Z,5.33
2018-12-09T11:37:53.469Z,4.80
2018-12-09T11:40:23.629Z,4.87
2018-12-09T11:42:54.693Z,4.80
2018-12-09T11:45:25.794Z,4.80
2018-12-09T11:47:55.002Z,5.50
2018-12-09T11:50:26.176Z,4.93
2018-12-09T11:52:55.412Z,6.27
2018-12-09T11:55:26.542Z,4.97
2018-12-09T11:58:17.340Z,5.30
2018-12-09T12:00:51.184Z,5.00
2018-12-09T12:03:21.793Z,5.63
2018-12-09T12:05:53.403Z,5.40
2018-12-09T12:08:27.679Z,4.90
2018-12-09T12:10:56.550Z,4.57
2018-12-09T12:13:34.452Z,4.57
2018-12-09T12:16:07.886Z,5.50
2018-12-09T12:18:39.758Z,5.10
2018-12-09T12:21:12.258Z,5.27
2018-12-09T12:23:42.323Z,5.07
2018-12-09T12:26:13.029Z,5.07
2018-12-09T12:28:46.244Z,5.10
2018-12-09T12:31:18.543Z,5.40
2018-12-09T12:33:57.917Z,5.37
2018-12-09T12:36:30.315Z,6.10
2018-12-09T12:39:02.492Z,6.00
2018-12-09T12:41:34.534Z,5.57
2018-12-09T12:44:04.271Z,5.80
2018-12-09T12:46:44.037Z,6.97
2018-12-09T12:49:18.073Z,5.57
2018-12-09T12:51:48.491Z,5.93
2018-12-09T12:54:20.691Z,5.13
2018-12-09T12:56:51.799Z,6.07
2018-12-09T12:59:24.406Z,5.43
2018-12-09T13:01:56.024Z,5.00
2018-12-09T13:04:30.155Z,5.03
2018-12-09T13:07:00.395Z,5.20
2018-12-09T13:09:30.874Z,5.53
2018-12-09T13:12:04.468Z,5.23
2018-12-09T13:14:35.174Z,4.93
2018-12-09T13:17:07.297Z,5.93
2018-12-09T13:19:41.113Z,6.70
2018-12-09T13:22:17.371Z,5.67
2018-12-09T13:24:47.811Z,5.63
2018-12-09T13:27:17.856Z,6.73
2018-12-09T13:29:49.723Z,5.17
2018-12-09T13:32:19.432Z,5.20
2018-12-09T13:34:51.151Z,6.00
2018-12-09T13:37:22.089Z,5.50
2018-12-09T13:39:53.199Z,5.27
2018-12-09T13:42:22.900Z,5.20
2018-12-09T13:44:55.749Z,5.03
2018-12-09T13:47:26.842Z,6.00
2018-12-09T13:49:58.194Z,4.97
2018-12-09T13:52:33.213Z,5.40
2018-12-09T13:55:10.141Z,5.00
2018-12-09T13:57:42.673Z,5.17
2018-12-09T14:00:20.383Z,5.13
2018-12-09T14:02:55.552Z,6.00
2018-12-09T14:05:27.197Z,6.00
2018-12-09T14:08:01.843Z,4.93
2018-12-09T14:10:40.963Z,6.07
2018-12-09T14:13:11.074Z,5.30
2018-12-09T14:15:42.246Z,4.47
2018-12-09T14:18:13.843Z,5.23
2018-12-09T14:20:47.670Z,5.30
2018-12-09T14:23:18.328Z,5.00
2018-12-09T14:25:48.029Z,4.53
2018-12-09T14:28:21.055Z,4.10
2018-12-09T14:30:52.948Z,5.10
2018-12-09T14:33:27.573Z,4.67
2018-12-09T14:36:01.669Z,5.53
2018-12-09T14:38:33.955Z,5.50
2018-12-09T14:41:08.156Z,5.07
2018-12-09T14:43:37.696Z,4.97
2018-12-09T14:46:10.367Z,4.40
2018-12-09T14:48:40.849Z,5.23
2018-12-09T14:51:12.882Z,4.60
2018-12-09T14:53:49.064Z,4.80
2018-12-09T14:56:22.438Z,4.93
2018-12-09T14:58:52.937Z,5.63
2018-12-09T15:01:27.508Z,5.40
2018-12-09T15:03:59.050Z,5.47
2018-12-09T15:07:34.096Z,5.30
2018-12-09T15:10:08.943Z,5.93
2018-12-09T15:12:46.231Z,5.10
2018-12-09T15:15:17.128Z,5.33
2018-12-09T15:17:48.594Z,5.03
2018-12-09T15:20:20.553Z,5.50
2018-12-09T15:22:54.227Z,6.33
2018-12-09T15:25:29.127Z,4.63
2018-12-09T15:27:58.823Z,5.63
2018-12-09T15:30:29.906Z,6.07
2018-12-09T15:32:59.485Z,5.63
2018-12-09T15:35:31.815Z,5.90
2018-12-09T15:38:03.762Z,4.93
2018-12-09T15:40:35.222Z,6.37
2018-12-09T15:43:04.850Z,7.93
2018-12-09T15:45:36.483Z,11.07
2018-12-09T15:48:07.258Z,5.33
2018-12-09T15:50:39.353Z,5.33
2018-12-09T15:53:11.434Z,6.47
2018-12-09T15:55:42.552Z,5.80
2018-12-09T15:58:15.105Z,6.30
2018-12-09T16:00:50.800Z,5.27
2018-12-09T16:03:19.629Z,5.33
2018-12-09T16:06:00.315Z,6.90
2018-12-09T16:08:30.118Z,5.87
2018-12-09T16:11:02.266Z,6.57
2018-12-09T16:13:35.667Z,5.93
2018-12-09T16:16:06.427Z,5.80
2018-12-09T16:18:38.265Z,6.70
2018-12-09T16:21:10.210Z,7.03
2018-12-09T16:23:46.632Z,7.87
2018-12-09T16:26:21.619Z,6.70
2018-12-09T16:28:51.769Z,5.13
2018-12-09T16:31:21.337Z,6.63
2018-12-09T16:33:51.829Z,6.50
2018-12-09T16:36:22.456Z,5.93
2018-12-09T16:38:51.092Z,6.27
2018-12-09T16:41:22.558Z,5.87
2018-12-09T16:43:52.386Z,5.53
2018-12-09T16:46:22.859Z,5.47
2018-12-09T16:48:52.240Z,5.40
2018-12-09T16:51:22.833Z,5.20
2018-12-09T16:53:56.772Z,6.33
2018-12-09T16:56:25.465Z,5.80
2018-12-09T16:59:01.228Z,7.03
2018-12-09T17:01:32.923Z,7.60
2018-12-09T17:04:04.139Z,5.77
2018-12-09T17:06:37.375Z,6.97
2018-12-09T17:09:08.651Z,5.43
2018-12-09T17:11:42.630Z,5.40
2018-12-09T17:14:12.817Z,6.10
2018-12-09T17:16:48.606Z,6.03
2018-12-09T17:19:30.324Z,5.27
2018-12-09T17:22:00.673Z,5.43
2018-12-09T17:24:33.709Z,5.80
2018-12-09T17:27:06.023Z,5.80
2018-12-09T17:29:34.721Z,5.13
2018-12-09T17:32:04.929Z,5.70
2018-12-09T17:34:34.980Z,5.57
2018-12-09T17:37:06.935Z,5.53
2018-12-09T17:39:40.330Z,5.63
2018-12-09T17:42:28.995Z,5.43
2018-12-09T17:45:12.438Z,5.10
2018-12-09T17:47:45.622Z,5.20
2018-12-09T17:50:28.589Z,4.80
2018-12-09T17:53:10.327Z,5.97
2018-12-09T17:55:44.711Z,5.57
2018-12-09T17:58:15.300Z,5.80
2018-12-09T18:00:45.862Z,5.40
2018-12-09T18:03:17.600Z,5.67
2018-12-09T18:05:49.779Z,5.70
2018-12-09T18:08:24.122Z,5.67
2018-12-09T18:10:57.950Z,6.27
2018-12-09T18:13:27.172Z,7.77
2018-12-09T18:16:01.502Z,7.50
2018-12-09T18:18:36.182Z,6.00
2018-12-09T18:21:10.939Z,6.80
2018-12-09T18:23:45.682Z,5.93
2018-12-09T18:26:18.512Z,6.07
2018-12-09T18:28:53.369Z,7.57
2018-12-09T18:31:22.690Z,13.70
2018-12-09T18:33:53.336Z,7.17
2018-12-09T18:36:23.425Z,7.57
2018-12-09T18:38:54.853Z,6.47
2018-12-09T18:41:28.836Z,7.83
2018-12-09T18:43:59.223Z,6.70
2018-12-09T18:46:33.895Z,7.50
2018-12-09T18:49:05.113Z,7.80
2018-12-09T18:51:35.349Z,6.17
2018-12-09T18:54:07.996Z,6.57
2018-12-09T18:56:39.651Z,6.63
2018-12-09T18:59:11.112Z,6.77
2018-12-09T19:01:53.576Z,5.93
2018-12-09T19:04:28.559Z,5.23
2018-12-09T19:06:58.657Z,6.33
2018-12-09T19:09:31.300Z,5.87
2018-12-09T19:12:05.474Z,6.00
2018-12-09T19:14:40.573Z,6.80
2018-12-09T19:17:20.496Z,5.80
2018-12-09T19:19:54.782Z,6.80
2018-12-09T19:22:28.600Z,6.53
2018-12-09T19:25:02.487Z,5.67
2018-12-09T19:27:36.965Z,6.40
2018-12-09T19:30:10.519Z,6.27
2018-12-09T19:32:40.784Z,6.17
2018-12-09T19:35:12.408Z,7.27
2018-12-09T19:37:44.690Z,6.60
2018-12-09T19:40:25.828Z,6.40
2018-12-09T19:42:58.629Z,6.60
2018-12-09T19:45:32.934Z,6.03
2018-12-09T19:48:04.299Z,7.13
2018-12-09T19:50:35.508Z,6.43
2018-12-09T19:53:05.983Z,6.63
2018-12-09T19:55:39.711Z,6.93
2018-12-09T19:58:14.448Z,6.43
2018-12-09T20:00:46.097Z,6.17
2018-12-09T20:03:20.237Z,6.10
2018-12-09T20:05:51.965Z,6.63
2018-12-09T20:08:21.136Z,6.33
2018-12-09T20:10:54.299Z,6.53
2018-12-09T20:13:25.555Z,6.90
2018-12-09T20:15:57.314Z,6.33
2018-12-09T20:18:26.453Z,7.03
2018-12-09T20:20:58.856Z,5.70
2018-12-09T20:23:30.448Z,5.90
2018-12-09T20:26:06.003Z,6.03
2018-12-09T20:28:39.127Z,5.67
2018-12-09T20:31:09.013Z,5.80
2018-12-09T20:33:39.652Z,6.67
2018-12-09T20:36:13.793Z,6.73
2018-12-09T20:38:45.417Z,6.03
2018-12-09T20:41:17.325Z,6.57
2018-12-09T20:43:50.192Z,6.73
2018-12-09T20:46:20.452Z,6.30
2018-12-09T20:48:58.355Z,6.60
2018-12-09T20:51:29.202Z,6.47
2018-12-09T20:54:03.592Z,6.37
2018-12-09T20:56:37.689Z,6.57
2018-12-09T20:59:13.376Z,5.90
2018-12-09T21:01:45.875Z,6.73
2018-12-09T21:04:17.253Z,6.03
2018-12-09T21:06:51.227Z,6.40
2018-12-09T21:09:23.577Z,6.07
2018-12-09T21:14:43.132Z,6.10
2018-12-09T21:17:13.683Z,6.87
2018-12-09T21:19:47.378Z,6.43
2018-12-09T21:22:18.171Z,7.17
2018-12-09T21:24:50.620Z,7.00
2018-12-09T21:27:20.909Z,6.53
2018-12-09T21:29:52.213Z,7.93
2018-12-09T21:32:20.817Z,6.57
2018-12-09T21:34:52.463Z,6.73
2018-12-09T21:37:30.716Z,5.67
2018-12-09T21:40:05.581Z,6.30
2018-12-09T21:42:38.247Z,7.03
2018-12-09T21:45:08.140Z,6.73
2018-12-09T21:47:38.193Z,7.00
2018-12-09T21:50:16.384Z,7.17
2018-12-09T21:52:51.060Z,6.63
2018-12-09T21:55:23.108Z,6.63
2018-12-09T21:57:55.336Z,6.10
2018-12-09T22:00:24.162Z,6.23
2018-12-09T22:02:54.379Z,5.87
2018-12-09T22:05:23.165Z,5.93
2018-12-09T22:07:51.332Z,5.67
2018-12-09T22:10:30.390Z,6.73
2018-12-09T22:12:58.587Z,6.63
2018-12-09T22:15:30.493Z,5.70
2018-12-09T22:17:58.484Z,6.47
2018-12-09T22:20:27.991Z,6.10
2018-12-09T22:22:59.547Z,6.07
2018-12-09T22:25:29.240Z,6.10
2018-12-09T22:27:58.684Z,6.03
2018-12-09T22:30:30.211Z,6.00
2018-12-09T22:32:58.538Z,6.23
2018-12-09T22:35:27.909Z,6.27
2018-12-09T22:37:57.635Z,6.07
2018-12-09T22:40:26.148Z,6.27
2018-12-09T22:42:54.596Z,5.90
2018-12-09T22:45:23.437Z,6.63
2018-12-09T22:47:54.024Z,6.23
2018-12-09T22:50:22.010Z,5.30
2018-12-09T22:52:49.888Z,5.87
2018-12-09T22:55:19.323Z,6.07
2018-12-09T22:57:47.172Z,6.07
2018-12-09T23:00:26.441Z,5.43
2018-12-09T23:03:04.270Z,5.97
2018-12-09T23:05:32.800Z,5.83
2018-12-09T23:08:00.682Z,6.03
2018-12-09T23:10:28.544Z,5.60
2018-12-09T23:12:56.417Z,6.80
2018-12-09T23:15:24.319Z,5.80
2018-12-09T23:17:52.152Z,6.63
2018-12-09T23:20:20.596Z,6.13
2018-12-09T23:22:48.446Z,6.53
2018-12-09T23:25:16.312Z,5.97
2018-12-09T23:27:44.400Z,7.07
2018-12-09T23:30:12.302Z,6.43
2018-12-09T23:32:40.174Z,5.63
2018-12-09T23:35:08.455Z,6.57
2018-12-09T23:37:36.278Z,6.67
2018-12-09T23:40:06.374Z,5.93
2018-12-09T23:42:34.229Z,6.23
2018-12-09T23:45:02.072Z,6.10
2018-12-09T23:47:29.927Z,6.27
2018-12-09T23:49:57.764Z,6.57
2018-12-09T23:52:25.592Z,7.27
2018-12-09T23:54:53.405Z,6.33
2018-12-09T23:57:21.224Z,6.90
2018-12-09T23:59:49.055Z,5.77
